Portersville, PA (16051)

1:35 AM EDT on July 26, 2016 (GMT -0400)
Shenango Twp - Pier 23 | | Change Station

Elev 1312 ft 40.94 °N, 80.29 °W | Updated 11 minutes ago

Partly Cloudy
Partly Cloudy
73.6 °F
Feels Like 73 °F
N
0.0
Wind Variable Wind from South

Today
High -- | Low -- °F
--% Chance of Precip.
Yesterday
High -- | Low -- °F
Precip. -- in
Pressure 30.01 in
Visibility 6.0 miles
Clouds Few 5500 ft
Heat Index 73 °F
Dew Point 69 °F
Humidity 85%
Rainfall 0.00 in
Snow Depth Not available.
6:11 AM 8:42 PM
Waning Gibbous, 58% visible
METAR KUCP 260456Z AUTO 00000KT 6SM BR FEW055 21/21 A3000 RMK AO2 SLP162 T02110206 403220211 $
Pressure 30.01 in
Visibility 6.0 miles
Clouds Few 5500 ft
Heat Index 73 °F
Dew Point 69 °F
Humidity 85%
Rainfall 0.00 in
Snow Depth Not available.
6:11 AM 8:42 PM
Waning Gibbous, 58% visible
METAR KUCP 260456Z AUTO 00000KT 6SM BR FEW055 21/21 A3000 RMK AO2 SLP162 T02110206 403220211 $

10-Day Weather Forecast

Almanac

Astronomy

Jul. 26, 2016 Rise Set
Actual Time
Civil Twilight
Nautical Twilight
Astronomical Twilight
Moon
Length of Visible Light
Length of Day
Tomorrow will be .
, % of the Moon is Illuminated

Today's Extremes

State Highs State Lows

Community

WunderPhotos

Upload Photos

1,927,538 photos uploaded!

WunderBlog® & News

Nearby

Air Quality

  Air Quality AQ Index Pollutant
Not available.

Snow Depth

Station Depth Elevation

Earthquake Activity

City Distance Mag. Time & Date
Minimum magnitude displayed is 2.5.

Coastal Water Temperatures

Place Temperature

Stations

Nearby Weather Stations

Station Location Temp. Windchill Dew Point Humidity Wind Precip. Elev Updated Type
                   

Watches & Warnings

There are currently no watches in effect.